.
WxDataArchive / Data Records for 2009-10-13
2009-10-12 October 2009 2009-10-14

Data Records for Tuesday, 13 October 2009

Time	Temp	Chill	HIndex	Humid	Dewpt	 Wind 	HiWind	WindDir	Rain 	Barom 
-----	----	-----	------	-----	-----	------	------	-------	-----	----- 
00:00	45.2	45.2	45.2	91	42.7	0	0	---	0.00	30.127 
00:05	45.2	45.2	45.2	91	42.7	0	0	---	0.00	30.127 
00:10	45.2	45.2	45.2	91	42.7	0	0	---	0.00	30.127 
00:15	45.4	45.4	45.4	91	42.9	0	0	---	0.00	30.130 
00:20	45.4	45.4	45.4	91	42.9	0	0	---	0.00	30.130 
00:25	45.4	45.4	45.4	91	42.9	0	0	---	0.00	30.130 
00:30	45.4	45.4	45.4	91	42.9	0	0	---	0.00	30.131 
00:35	45.5	45.5	45.5	91	43.0	0	0	---	0.00	30.131 
00:40	45.5	45.5	45.5	91	43.0	0	0	---	0.00	30.131 
00:45	45.5	45.5	45.5	91	43.0	0	0	---	0.00	30.126 
00:50	45.5	45.5	45.5	91	43.0	0	0	---	0.00	30.126 
00:55	45.5	45.5	45.5	91	43.0	0	0	---	0.00	30.126 
01:00	45.7	45.7	45.7	91	43.2	0	0	---	0.00	30.127 
01:05	45.7	45.7	45.7	91	43.2	0	0	---	0.00	30.127 
01:10	45.7	45.7	45.7	91	43.2	0	0	---	0.00	30.127 
01:15	45.7	45.7	45.7	91	43.2	0	0	---	0.00	30.131 
01:20	45.8	45.8	45.8	91	43.3	0	0	---	0.00	30.131 
01:25	45.8	45.8	45.8	91	43.3	0	1	112	0.00	30.131 
01:30	45.8	45.8	45.8	90	43.0	0	1	112	0.00	30.134 
01:35	45.8	45.8	45.8	90	43.0	0	0	---	0.00	30.134 
01:40	45.8	45.8	45.8	90	43.0	0	1	112	0.00	30.134 
01:45	46.0	46.0	46.0	90	43.2	0	1	112	0.00	30.138 
01:50	46.0	46.0	46.0	89	42.9	0	1	112	0.00	30.138 
01:55	46.0	46.0	46.0	89	42.9	0	1	112	0.00	30.138 
02:00	46.0	46.0	46.0	89	42.9	0	1	112	0.00	30.135 
02:05	46.1	46.1	46.1	89	43.0	0	0	---	0.00	30.135 
02:10	46.1	46.1	46.1	89	43.0	0	1	112	0.00	30.135 
02:15	46.2	46.2	46.2	88	42.8	0	1	112	0.00	30.142 
02:20	46.2	46.2	46.2	88	42.8	0	1	112	0.00	30.142 
02:25	46.2	46.2	46.2	88	42.8	0	1	112	0.00	30.142 
02:30	46.2	46.2	46.2	88	42.8	1	3	112	0.00	30.152 
02:35	46.1	46.1	46.1	87	42.4	0	2	315	0.00	30.152 
02:40	46.1	46.1	46.1	87	42.4	0	2	315	0.00	30.152 
02:45	46.1	46.1	46.1	87	42.4	1	3	315	0.00	30.156 
02:50	46.1	46.1	46.1	87	42.4	1	3	315	0.00	30.156 
02:55	46.1	46.1	46.1	87	42.4	0	1	315	0.00	30.156 
03:00	46.1	46.1	46.1	87	42.4	0	1	315	0.00	30.164 
03:05	46.1	46.1	46.1	87	42.4	0	2	315	0.00	30.164 
03:10	46.1	46.1	46.1	87	42.4	0	2	315	0.00	30.164 
03:15	46.1	46.1	46.1	87	42.4	0	2	315	0.00	30.165 
03:20	46.1	46.1	46.1	87	42.4	0	3	315	0.00	30.165 
03:25	46.1	46.1	46.1	87	42.4	0	2	315	0.00	30.165 
03:30	46.1	46.1	46.1	87	42.4	0	1	315	0.00	30.156 
03:35	46.0	46.0	46.0	87	42.4	0	1	315	0.00	30.156 
03:40	46.0	46.0	46.0	88	42.6	0	2	315	0.00	30.156 
03:45	46.0	46.0	46.0	88	42.6	0	2	315	0.00	30.162 
03:50	45.8	45.8	45.8	88	42.5	0	2	315	0.00	30.162 
03:55	45.7	45.7	45.7	88	42.4	0	1	315	0.00	30.162 
04:00	45.5	45.5	45.5	88	42.2	0	2	315	0.00	30.163 
04:05	45.4	45.4	45.4	89	42.3	0	1	315	0.00	30.163 
04:10	45.2	45.2	45.2	89	42.2	0	1	315	0.00	30.163 
04:15	45.4	45.4	45.4	90	42.6	0	1	315	0.00	30.169 
04:20	45.4	45.4	45.4	90	42.6	0	2	315	0.00	30.169 
04:25	45.4	45.4	45.4	90	42.6	0	1	315	0.00	30.169 
04:30	45.5	45.5	45.5	90	42.7	0	1	315	0.00	30.171 
04:35	45.5	45.5	45.5	91	43.0	0	2	315	0.00	30.171 
04:40	45.5	45.5	45.5	91	43.0	0	1	315	0.00	30.171 
04:45	45.5	45.5	45.5	91	43.0	0	2	315	0.00	30.173 
04:50	45.7	45.7	45.7	91	43.2	1	2	315	0.00	30.173 
04:55	45.7	45.7	45.7	91	43.2	0	1	315	0.00	30.173 
05:00	45.7	45.7	45.7	91	43.2	0	2	315	0.00	30.182 
05:05	45.8	45.8	45.8	91	43.3	0	3	315	0.00	30.182 
05:10	45.8	45.8	45.8	91	43.3	0	1	315	0.00	30.182 
05:15	45.8	45.8	45.8	91	43.3	1	3	315	0.00	30.185 
05:20	46.0	46.0	46.0	91	43.5	0	2	315	0.00	30.185 
05:25	46.0	46.0	46.0	91	43.5	0	2	315	0.00	30.185 
05:30	46.1	46.1	46.1	91	43.6	1	2	315	0.00	30.195 
05:35	46.1	46.1	46.1	91	43.6	0	2	315	0.00	30.195 
05:40	46.1	46.1	46.1	91	43.6	0	2	315	0.00	30.195 
05:45	46.1	46.1	46.1	91	43.6	1	3	315	0.00	30.200 
05:50	46.1	46.1	46.1	91	43.6	0	1	315	0.00	30.200 
05:55	46.1	46.1	46.1	91	43.6	0	1	315	0.00	30.200 
06:00	46.2	46.2	46.2	91	43.7	0	2	315	0.00	30.206 
06:05	46.2	46.2	46.2	91	43.7	1	3	292	0.00	30.206 
06:10	46.2	46.2	46.2	91	43.7	1	2	292	0.00	30.206 
06:15	46.2	46.2	46.2	90	43.4	1	3	292	0.00	30.210 
06:20	46.2	46.2	46.2	90	43.4	0	3	292	0.00	30.210 
06:25	46.4	46.4	46.4	90	43.6	1	4	292	0.00	30.210 
06:30	46.4	46.4	46.4	90	43.6	1	2	270	0.00	30.217 
06:35	46.4	46.4	46.4	90	43.6	0	1	270	0.00	30.217 
06:40	46.5	46.5	46.5	89	43.4	0	2	270	0.00	30.217 
06:45	46.5	46.5	46.5	89	43.4	1	3	292	0.00	30.225 
06:50	46.5	46.5	46.5	88	43.1	1	4	292	0.00	30.225 
06:55	46.5	46.5	46.5	88	43.1	0	3	292	0.00	30.225 
07:00	46.7	46.7	46.7	88	43.3	0	1	292	0.00	30.233 
07:05	46.7	46.7	46.7	88	43.3	0	1	292	0.00	30.233 
07:10	46.7	46.7	46.7	88	43.3	0	2	292	0.00	30.233 
07:15	46.5	46.5	46.5	88	43.1	1	3	292	0.00	30.238 
07:20	46.5	46.5	46.5	88	43.1	0	3	270	0.00	30.238 
07:25	46.5	46.5	46.5	87	42.8	1	4	292	0.00	30.238 
07:30	46.5	46.5	46.5	87	42.8	0	1	292	0.00	30.243 
07:35	46.5	46.5	46.5	87	42.8	0	3	315	0.00	30.243 
07:40	46.5	46.5	46.5	87	42.8	1	4	270	0.00	30.243 
07:45	46.5	46.5	46.5	87	42.8	1	4	292	0.00	30.255 
07:50	46.4	46.4	46.4	86	42.4	2	5	292	0.00	30.255 
07:55	46.2	46.2	46.2	85	41.9	1	4	315	0.00	30.255 
08:00	46.1	46.1	46.1	85	41.8	0	3	315	0.00	30.265 
08:05	46.0	46.0	46.0	84	41.4	1	5	270	0.00	30.265 
08:10	45.8	45.8	45.8	84	41.2	0	1	292	0.00	30.265 
08:15	45.7	45.7	45.7	84	41.1	1	3	292	0.00	30.271 
08:20	45.7	45.7	45.7	84	41.1	0	2	270	0.00	30.271 
08:25	45.7	45.7	45.7	85	41.5	0	1	270	0.00	30.271 
08:30	45.5	45.5	45.5	85	41.3	0	1	270	0.00	30.282 
08:35	45.4	45.4	45.4	86	41.5	0	1	270	0.00	30.282 
08:40	45.2	45.2	45.2	85	41.0	0	2	270	0.00	30.282 
08:45	45.2	45.2	45.2	86	41.3	0	1	270	0.00	30.294 
08:50	45.2	45.2	45.2	86	41.3	0	1	270	0.00	30.294 
08:55	45.1	45.1	45.1	85	40.9	0	1	270	0.00	30.294 
09:00	44.8	44.8	44.8	85	40.6	0	2	270	0.00	30.298 
09:05	44.5	44.5	44.5	85	40.3	0	3	45	0.00	30.298 
09:10	44.3	44.3	44.3	85	40.1	0	1	45	0.00	30.298 
09:15	44.2	44.2	44.2	85	40.0	0	3	270	0.00	30.313 
09:20	44.1	44.1	44.1	85	39.9	0	3	292	0.00	30.313 
09:25	44.1	44.1	44.1	85	39.9	0	2	292	0.00	30.313 
09:30	44.1	44.1	44.1	85	39.9	0	5	292	0.00	30.325 
09:35	44.1	44.1	44.1	84	39.6	0	1	68	0.00	30.325 
09:40	44.2	44.2	44.2	85	40.0	0	2	338	0.00	30.325 
09:45	44.2	44.2	44.2	84	39.7	0	1	338	0.00	30.331 
09:50	44.3	44.3	44.3	84	39.8	0	2	315	0.00	30.331 
09:55	44.5	44.5	44.5	83	39.7	0	2	0	0.00	30.331 
10:00	44.6	44.6	44.6	83	39.8	0	1	0	0.00	30.330 
10:05	44.6	44.6	44.6	82	39.4	0	3	292	0.00	30.330 
10:10	44.8	44.8	44.8	82	39.6	0	2	68	0.00	30.330 
10:15	44.9	44.9	44.9	82	39.7	0	2	0	0.00	30.331 
10:20	44.9	44.9	44.9	81	39.4	0	2	0	0.00	30.331 
10:25	45.4	45.4	45.4	81	39.9	0	2	0	0.00	30.331 
10:30	46.1	46.1	46.1	79	40.0	1	4	292	0.00	30.332 
10:35	46.7	46.7	46.7	76	39.5	1	3	270	0.00	30.332 
10:40	46.1	46.1	46.1	73	37.9	1	6	315	0.00	30.332 
10:45	45.4	45.4	45.4	73	37.3	1	6	135	0.00	30.335 
10:50	44.8	44.8	44.8	73	36.7	1	4	135	0.00	30.335 
10:55	44.5	44.5	44.5	74	36.7	0	3	135	0.00	30.335 
11:00	44.3	44.3	44.3	73	36.2	0	2	338	0.00	30.338 
11:05	44.5	44.5	44.5	73	36.4	0	2	338	0.00	30.338 
11:10	44.8	44.8	44.8	72	36.3	1	4	315	0.00	30.338 
11:15	45.4	45.4	45.4	71	36.6	1	5	292	0.00	30.335 
11:20	45.2	45.2	45.2	69	35.6	1	4	0	0.00	30.335 
11:25	45.7	45.7	45.7	71	36.8	0	3	0	0.00	30.335 
11:30	46.2	46.2	46.2	67	35.9	1	5	292	0.00	30.332 
11:35	47.1	47.1	47.1	68	37.1	1	4	90	0.00	30.332 
11:40	47.7	47.7	47.7	64	36.1	1	6	270	0.00	30.332 
11:45	47.7	47.7	47.7	65	36.5	0	2	292	0.00	30.331 
11:50	47.4	47.4	47.4	60	34.2	1	4	0	0.00	30.331 
11:55	47.6	47.6	47.6	59	34.0	1	5	292	0.00	30.331 
12:00	47.9	47.9	47.9	62	35.5	0	2	338	0.00	30.336 
12:05	48.8	48.8	48.8	59	35.1	0	2	338	0.00	30.336 
12:10	48.6	48.6	48.6	57	34.1	1	5	292	0.00	30.336 
12:15	47.6	47.6	47.6	57	33.1	1	5	0	0.00	30.340 
12:20	47.6	47.6	47.6	58	33.6	1	4	270	0.00	30.340 
12:25	48.3	48.3	48.3	57	33.8	0	2	22	0.00	30.340 
12:30	48.9	48.9	48.9	60	35.6	1	4	112	0.00	30.342 
12:35	48.2	48.2	48.2	57	33.7	0	3	0	0.00	30.342 
12:40	48.2	48.2	48.2	59	34.6	1	4	270	0.00	30.342 
12:45	49.2	49.2	49.2	60	35.9	0	2	315	0.00	30.344 
12:50	48.8	48.8	48.8	53	32.4	1	5	315	0.00	30.344 
12:55	48.5	48.5	48.5	56	33.5	1	5	292	0.00	30.344 
13:00	48.9	48.9	48.9	58	34.8	0	4	292	0.00	30.340 
13:05	48.8	48.8	48.8	55	33.4	1	3	270	0.00	30.340 
13:10	48.6	48.6	48.6	55	33.2	1	3	315	0.00	30.340 
13:15	49.4	49.4	49.4	58	35.2	1	4	135	0.00	30.338 
13:20	49.4	49.4	49.4	55	33.9	1	2	315	0.00	30.338 
13:25	49.2	49.2	49.2	56	34.2	0	2	338	0.00	30.338 
13:30	49.2	49.2	49.2	52	32.3	1	4	292	0.00	30.332 
13:35	49.1	49.1	49.1	53	32.7	1	3	315	0.00	30.332 
13:40	49.2	49.2	49.2	52	32.3	1	3	270	0.00	30.332 
13:45	49.6	49.6	49.6	53	33.2	1	5	270	0.00	30.336 
13:50	49.9	49.9	49.9	53	33.5	1	4	90	0.00	30.336 
13:55	50.1	50.1	50.1	53	33.6	1	6	112	0.00	30.336 
14:00	50.1	50.1	50.1	53	33.6	1	4	90	0.00	30.326 
14:05	50.1	50.1	50.1	53	33.6	0	4	135	0.00	30.326 
14:10	50.1	50.1	50.1	54	34.1	0	3	135	0.00	30.326 
14:15	50.1	50.1	50.1	53	33.6	1	7	292	0.00	30.321 
14:20	49.9	49.9	49.9	51	32.5	0	2	22	0.00	30.321 
14:25	49.9	49.9	49.9	52	33.0	0	2	45	0.00	30.321 
14:30	50.1	50.1	50.1	52	33.2	1	4	68	0.00	30.314 
14:35	50.2	50.2	50.2	54	34.2	1	3	68	0.00	30.314 
14:40	50.4	50.4	50.4	51	33.0	2	7	112	0.00	30.314 
14:45	50.4	50.4	50.4	52	33.4	1	4	292	0.00	30.320 
14:50	50.2	50.2	50.2	50	32.3	0	1	22	0.00	30.320 
14:55	50.2	50.2	50.2	49	31.8	0	2	22	0.00	30.320 
15:00	50.5	50.5	50.5	51	33.1	0	4	22	0.00	30.309 
15:05	50.5	50.5	50.5	50	32.6	1	5	68	0.00	30.309 
15:10	50.7	50.7	50.7	53	34.2	1	4	90	0.00	30.309 
15:15	50.8	50.8	50.8	51	33.3	0	4	90	0.00	30.309 
15:20	50.7	50.7	50.7	48	31.7	1	3	112	0.00	30.309 
15:25	50.8	50.8	50.8	50	32.8	0	2	135	0.00	30.309 
15:30	50.8	50.8	50.8	48	31.8	1	3	135	0.00	30.309 
15:35	50.5	50.5	50.5	49	32.1	0	3	90	0.00	30.309 
15:40	50.4	50.4	50.4	48	31.5	0	2	68	0.00	30.309 
15:45	50.2	50.2	50.2	45	29.7	1	5	45	0.00	30.316 
15:50	50.4	50.4	50.4	45	29.9	1	7	112	0.00	30.316 
15:55	50.5	50.5	50.5	46	30.5	0	3	90	0.00	30.316 
16:00	50.7	50.7	50.7	44	29.6	0	2	135	0.00	30.327 
16:05	50.7	50.7	50.7	44	29.6	1	3	135	0.00	30.327 
16:10	50.7	50.7	50.7	47	31.2	1	3	135	0.00	30.327 
16:15	50.7	50.7	50.7	46	30.7	1	5	112	0.00	30.336 
16:20	50.5	50.5	50.5	49	32.1	0	1	112	0.00	30.336 
16:25	50.5	50.5	50.5	48	31.5	1	3	112	0.00	30.336 
16:30	50.5	50.5	50.5	49	32.1	0	4	112	0.00	30.340 
16:35	50.4	50.4	50.4	47	30.9	0	3	90	0.00	30.340 
16:40	50.4	50.4	50.4	48	31.5	0	1	315	0.00	30.340 
16:45	50.2	50.2	50.2	48	31.3	0	3	135	0.00	30.349 
16:50	50.2	50.2	50.2	47	30.8	0	1	135	0.00	30.349 
16:55	50.2	50.2	50.2	47	30.8	0	1	135	0.00	30.349 
17:00	50.2	50.2	50.2	46	30.2	0	2	135	0.00	30.346 
17:05	50.2	50.2	50.2	46	30.2	0	1	135	0.00	30.346 
17:10	50.1	50.1	50.1	47	30.7	0	2	135	0.00	30.346 
17:15	49.9	49.9	49.9	48	31.0	0	2	135	0.00	30.343 
17:20	49.8	49.8	49.8	46	29.9	0	2	135	0.00	30.343 
17:25	49.8	49.8	49.8	48	30.9	0	1	135	0.00	30.343 
17:30	49.6	49.6	49.6	47	30.2	0	0	---	0.00	30.342 
17:35	49.6	49.6	49.6	47	30.2	0	3	135	0.00	30.342 
17:40	49.5	49.5	49.5	49	31.1	0	0	---	0.00	30.342 
17:45	49.2	49.2	49.2	49	30.9	0	2	90	0.00	30.347 
17:50	49.1	49.1	49.1	50	31.3	0	1	90	0.00	30.347 
17:55	48.9	48.9	48.9	49	30.6	0	1	90	0.00	30.347 
18:00	48.8	48.8	48.8	49	30.5	0	1	90	0.00	30.343 
18:05	48.6	48.6	48.6	51	31.3	0	1	90	0.00	30.343 
18:10	48.5	48.5	48.5	51	31.2	0	1	90	0.00	30.343 
18:15	48.3	48.3	48.3	52	31.5	0	1	90	0.00	30.344 
18:20	48.0	48.0	48.0	52	31.2	0	0	---	0.00	30.344 
18:25	47.9	47.9	47.9	53	31.6	0	0	---	0.00	30.344 
18:30	47.6	47.6	47.6	55	32.2	0	0	---	0.00	30.337 
18:35	47.3	47.3	47.3	57	32.8	0	1	90	0.00	30.337 
18:40	47.0	47.0	47.0	56	32.1	0	0	---	0.00	30.337 
18:45	46.8	46.8	46.8	57	32.4	0	0	---	0.00	30.335 
18:50	46.5	46.5	46.5	57	32.1	0	1	90	0.00	30.335 
18:55	46.4	46.4	46.4	56	31.6	0	1	90	0.00	30.335 
19:00	46.0	46.0	46.0	57	31.6	0	0	---	0.00	30.343 
19:05	45.7	45.7	45.7	58	31.8	0	0	---	0.00	30.343 
19:10	45.4	45.4	45.4	58	31.5	0	0	---	0.00	30.343 
19:15	44.9	44.9	44.9	59	31.5	0	0	---	0.00	30.344 
19:20	44.6	44.6	44.6	61	32.0	0	0	---	0.00	30.344 
19:25	44.2	44.2	44.2	61	31.6	0	0	---	0.00	30.344 
19:30	43.9	43.9	43.9	61	31.3	0	0	---	0.00	30.335 
19:35	43.6	43.6	43.6	61	31.0	0	1	90	0.00	30.335 
19:40	43.5	43.5	43.5	62	31.4	0	0	---	0.00	30.335 
19:45	43.3	43.3	43.3	63	31.6	0	1	90	0.00	30.337 
19:50	43.1	43.1	43.1	62	31.0	0	0	---	0.00	30.337 
19:55	42.9	42.9	42.9	63	31.2	0	0	---	0.00	30.337 
20:00	42.8	42.8	42.8	62	30.7	0	1	90	0.00	30.346 
20:05	42.6	42.6	42.6	62	30.5	0	0	---	0.00	30.346 
20:10	42.5	42.5	42.5	64	31.2	0	0	---	0.00	30.346 
20:15	42.3	42.3	42.3	64	31.0	0	0	---	0.00	30.348 
20:20	42.2	42.2	42.2	64	30.9	0	0	---	0.00	30.348 
20:25	41.9	41.9	41.9	65	31.0	0	0	---	0.00	30.348 
20:30	41.8	41.8	41.8	65	30.9	0	0	---	0.00	30.338 
20:35	41.8	41.8	41.8	66	31.3	0	0	---	0.00	30.338 
20:40	41.8	41.8	41.8	64	30.5	0	1	90	0.00	30.338 
20:45	41.9	41.9	41.9	64	30.6	0	1	90	0.00	30.335 
20:50	42.2	42.2	42.2	63	30.5	0	1	90	0.00	30.335 
20:55	42.3	42.3	42.3	63	30.6	0	2	90	0.00	30.335 
21:00	42.3	42.3	42.3	63	30.6	0	1	90	0.00	30.332 
21:05	42.5	42.5	42.5	62	30.4	0	2	90	0.00	30.332 
21:10	42.5	42.5	42.5	62	30.4	0	3	90	0.00	30.332 
21:15	42.5	42.5	42.5	62	30.4	0	2	90	0.00	30.331 
21:20	42.3	42.3	42.3	62	30.2	0	2	90	0.00	30.331 
21:25	42.3	42.3	42.3	63	30.6	0	1	90	0.00	30.331 
21:30	42.2	42.2	42.2	63	30.5	0	2	90	0.00	30.331 
21:35	42.1	42.1	42.1	63	30.4	1	3	90	0.00	30.331 
21:40	42.1	42.1	42.1	64	30.8	0	2	90	0.00	30.331 
21:45	41.9	41.9	41.9	65	31.0	0	1	90	0.00	30.331 
21:50	41.8	41.8	41.8	65	30.9	1	3	90	0.00	30.331 
21:55	41.8	41.8	41.8	65	30.9	0	2	45	0.00	30.331 
22:00	41.6	41.6	41.6	65	30.7	0	2	45	0.00	30.334 
22:05	41.6	41.6	41.6	65	30.7	0	2	45	0.00	30.334 
22:10	41.5	41.5	41.5	66	31.0	1	2	45	0.00	30.334 
22:15	41.3	41.3	41.3	67	31.2	0	2	45	0.00	30.333 
22:20	41.2	41.2	41.2	67	31.1	1	4	45	0.00	30.333 
22:25	41.2	41.2	41.2	67	31.1	1	5	90	0.00	30.333 
22:30	41.1	41.1	41.1	67	31.0	1	4	112	0.00	30.323 
22:35	40.9	40.9	40.9	68	31.2	0	2	68	0.00	30.323 
22:40	40.8	40.8	40.8	68	31.1	1	3	90	0.00	30.323 
22:45	40.8	40.8	40.8	68	31.1	1	3	90	0.00	30.328 
22:50	40.6	40.6	40.6	69	31.2	1	4	90	0.00	30.328 
22:55	40.5	40.5	40.5	69	31.1	1	3	90	0.00	30.328 
23:00	40.3	40.3	40.3	69	31.0	1	4	90	0.00	30.331 
23:05	40.3	40.3	40.3	69	31.0	1	3	90	0.00	30.331 
23:10	40.2	40.2	40.2	70	31.2	1	2	90	0.00	30.331 
23:15	39.9	39.9	39.9	70	30.9	0	2	90	0.00	30.331 
23:20	39.8	39.8	39.8	71	31.2	0	1	90	0.00	30.331 
23:25	39.5	39.5	39.5	72	31.2	0	3	90	0.00	30.331 
23:30	39.3	39.3	39.3	73	31.4	0	1	90	0.00	30.331 
23:35	39.2	39.2	39.2	74	31.6	0	1	90	0.00	30.331 
23:40	39.1	39.1	39.1	75	31.9	0	2	90	0.00	30.331 
23:45	38.9	38.9	38.9	75	31.7	0	2	90	0.00	30.323 
23:50	38.9	38.9	38.9	75	31.7	0	1	90	0.00	30.323 
23:55	38.8	38.8	38.8	75	31.6	0	1	90	0.00	30.323 

CoCoRaHS
IN-AL-39
A2 Web Hosting
Creative Commons License
GoDaddy
search engine by freefind advanced

loaded 2018-11-20 15:30:50 • last modified 2010-11-18 10:43:29
Privacy PolicyDisclaimer
• wx.awcolley.com is powered by PmWiki v.2002016 •
• all content (unless otherwise noted) © 2018 A W Colley